sensor_id;sensor_type;location;lat;lon;timestamp;P1;durP1;ratioP1;P2;durP2;ratioP2
62401;SDS011;48440;51.224;22.506;2023-02-28T00:00:26;8.90;;;4.97;;
62401;SDS011;48440;51.224;22.506;2023-02-28T00:02:55;12.63;;;5.78;;
62401;SDS011;48440;51.224;22.506;2023-02-28T00:05:22;11.25;;;6.15;;
62401;SDS011;48440;51.224;22.506;2023-02-28T00:07:52;11.73;;;6.57;;
62401;SDS011;48440;51.224;22.506;2023-02-28T00:10:23;14.18;;;5.55;;
62401;SDS011;48440;51.224;22.506;2023-02-28T00:12:54;9.85;;;5.90;;
62401;SDS011;48440;51.224;22.506;2023-02-28T00:15:22;12.93;;;5.70;;
62401;SDS011;48440;51.224;22.506;2023-02-28T00:17:48;14.70;;;5.63;;
62401;SDS011;48440;51.224;22.506;2023-02-28T00:20:35;13.63;;;6.88;;
62401;SDS011;48440;51.224;22.506;2023-02-28T00:23:01;14.07;;;7.30;;
62401;SDS011;48440;51.224;22.506;2023-02-28T00:25:29;25.20;;;9.18;;
62401;SDS011;48440;51.224;22.506;2023-02-28T00:27:57;24.08;;;9.75;;
62401;SDS011;48440;51.224;22.506;2023-02-28T00:30:28;23.83;;;8.60;;
62401;SDS011;48440;51.224;22.506;2023-02-28T00:33:02;16.67;;;7.45;;
62401;SDS011;48440;51.224;22.506;2023-02-28T00:35:29;13.70;;;6.28;;
62401;SDS011;48440;51.224;22.506;2023-02-28T00:38:03;12.30;;;6.47;;
62401;SDS011;48440;51.224;22.506;2023-02-28T00:40:33;13.95;;;6.40;;
62401;SDS011;48440;51.224;22.506;2023-02-28T00:43:01;9.77;;;6.32;;
62401;SDS011;48440;51.224;22.506;2023-02-28T00:45:30;13.65;;;6.57;;
62401;SDS011;48440;51.224;22.506;2023-02-28T00:48:01;14.85;;;6.70;;
62401;SDS011;48440;51.224;22.506;2023-02-28T00:50:32;15.30;;;6.82;;
62401;SDS011;48440;51.224;22.506;2023-02-28T00:52:58;14.35;;;6.40;;
62401;SDS011;48440;51.224;22.506;2023-02-28T00:55:24;13.38;;;6.97;;
62401;SDS011;48440;51.224;22.506;2023-02-28T00:57:50;15.20;;;6.88;;
62401;SDS011;48440;51.224;22.506;2023-02-28T01:00:15;13.82;;;6.47;;
62401;SDS011;48440;51.224;22.506;2023-02-28T01:02:41;14.63;;;6.82;;
62401;SDS011;48440;51.224;22.506;2023-02-28T01:05:15;13.23;;;7.07;;
62401;SDS011;48440;51.224;22.506;2023-02-28T01:07:46;15.05;;;7.45;;
62401;SDS011;48440;51.224;22.506;2023-02-28T01:10:11;12.93;;;6.47;;
62401;SDS011;48440;51.224;22.506;2023-02-28T01:12:37;13.15;;;6.78;;
62401;SDS011;48440;51.224;22.506;2023-02-28T01:15:03;15.23;;;7.55;;
62401;SDS011;48440;51.224;22.506;2023-02-28T01:17:29;15.18;;;7.15;;
62401;SDS011;48440;51.224;22.506;2023-02-28T01:19:55;14.88;;;6.63;;
62401;SDS011;48440;51.224;22.506;2023-02-28T01:22:21;17.60;;;8.45;;
62401;SDS011;48440;51.224;22.506;2023-02-28T01:24:47;18.58;;;8.45;;
62401;SDS011;48440;51.224;22.506;2023-02-28T01:27:13;18.45;;;8.43;;
62401;SDS011;48440;51.224;22.506;2023-02-28T01:29:38;22.23;;;10.23;;
62401;SDS011;48440;51.224;22.506;2023-02-28T01:32:04;25.88;;;11.32;;
62401;SDS011;48440;51.224;22.506;2023-02-28T01:34:30;34.58;;;12.18;;
62401;SDS011;48440;51.224;22.506;2023-02-28T01:36:55;34.15;;;12.90;;
62401;SDS011;48440;51.224;22.506;2023-02-28T01:39:23;30.73;;;13.60;;
62401;SDS011;48440;51.224;22.506;2023-02-28T01:41:50;36.92;;;14.15;;
62401;SDS011;48440;51.224;22.506;2023-02-28T01:47:18;28.23;;;12.15;;
62401;SDS011;48440;51.224;22.506;2023-02-28T01:49:52;25.77;;;11.77;;
62401;SDS011;48440;51.224;22.506;2023-02-28T01:53:10;22.80;;;10.40;;
62401;SDS011;48440;51.224;22.506;2023-02-28T01:55:49;27.00;;;10.57;;
62401;SDS011;48440;51.224;22.506;2023-02-28T01:58:25;20.35;;;9.25;;
62401;SDS011;48440;51.224;22.506;2023-02-28T02:00:53;24.08;;;9.70;;
62401;SDS011;48440;51.224;22.506;2023-02-28T02:03:22;20.83;;;8.93;;
62401;SDS011;48440;51.224;22.506;2023-02-28T02:05:59;20.90;;;8.73;;
62401;SDS011;48440;51.224;22.506;2023-02-28T02:08:26;25.52;;;9.27;;
62401;SDS011;48440;51.224;22.506;2023-02-28T02:10:54;17.98;;;9.20;;
62401;SDS011;48440;51.224;22.506;2023-02-28T02:16:23;28.13;;;11.93;;
62401;SDS011;48440;51.224;22.506;2023-02-28T02:19:11;24.10;;;10.13;;
62401;SDS011;48440;51.224;22.506;2023-02-28T02:35:35;24.75;;;8.35;;
62401;SDS011;48440;51.224;22.506;2023-02-28T02:41:36;27.23;;;11.60;;
62401;SDS011;48440;51.224;22.506;2023-02-28T02:53:10;22.77;;;8.98;;
62401;SDS011;48440;51.224;22.506;2023-02-28T02:55:41;21.50;;;9.40;;
62401;SDS011;48440;51.224;22.506;2023-02-28T02:58:11;24.42;;;9.35;;
62401;SDS011;48440;51.224;22.506;2023-02-28T03:00:52;19.40;;;8.73;;
62401;SDS011;48440;51.224;22.506;2023-02-28T03:03:22;16.88;;;7.63;;
62401;SDS011;48440;51.224;22.506;2023-02-28T03:05:54;18.10;;;8.57;;
62401;SDS011;48440;51.224;22.506;2023-02-28T03:08:22;19.60;;;9.10;;
62401;SDS011;48440;51.224;22.506;2023-02-28T03:10:51;18.00;;;8.27;;
62401;SDS011;48440;51.224;22.506;2023-02-28T03:16:29;22.08;;;9.45;;
62401;SDS011;48440;51.224;22.506;2023-02-28T03:24:23;15.77;;;8.40;;
62401;SDS011;48440;51.224;22.506;2023-02-28T03:27:05;19.05;;;8.77;;
62401;SDS011;48440;51.224;22.506;2023-02-28T03:29:56;17.90;;;9.25;;
62401;SDS011;48440;51.224;22.506;2023-02-28T03:32:25;20.60;;;10.05;;
62401;SDS011;48440;51.224;22.506;2023-02-28T03:37:55;22.85;;;10.70;;
62401;SDS011;48440;51.224;22.506;2023-02-28T03:40:31;23.42;;;10.70;;
62401;SDS011;48440;51.224;22.506;2023-02-28T03:43:01;27.35;;;11.50;;
62401;SDS011;48440;51.224;22.506;2023-02-28T03:45:33;25.05;;;10.88;;
62401;SDS011;48440;51.224;22.506;2023-02-28T03:48:06;19.30;;;9.70;;
62401;SDS011;48440;51.224;22.506;2023-02-28T03:50:44;23.02;;;10.10;;
62401;SDS011;48440;51.224;22.506;2023-02-28T03:53:25;22.50;;;11.18;;
62401;SDS011;48440;51.224;22.506;2023-02-28T04:01:33;26.33;;;9.77;;
62401;SDS011;48440;51.224;22.506;2023-02-28T04:04:03;23.30;;;10.20;;
62401;SDS011;48440;51.224;22.506;2023-02-28T04:06:30;20.38;;;10.00;;
62401;SDS011;48440;51.224;22.506;2023-02-28T04:08:57;23.25;;;9.20;;
62401;SDS011;48440;51.224;22.506;2023-02-28T04:11:32;21.42;;;9.73;;
62401;SDS011;48440;51.224;22.506;2023-02-28T04:14:03;26.27;;;9.98;;
62401;SDS011;48440;51.224;22.506;2023-02-28T04:16:33;28.23;;;11.55;;
62401;SDS011;48440;51.224;22.506;2023-02-28T04:18:59;28.25;;;12.70;;
62401;SDS011;48440;51.224;22.506;2023-02-28T04:21:33;26.58;;;12.05;;
62401;SDS011;48440;51.224;22.506;2023-02-28T04:24:01;29.77;;;12.48;;
62401;SDS011;48440;51.224;22.506;2023-02-28T04:26:31;27.63;;;11.95;;
62401;SDS011;48440;51.224;22.506;2023-02-28T04:28:58;25.75;;;12.25;;
62401;SDS011;48440;51.224;22.506;2023-02-28T04:31:24;26.95;;;12.02;;
62401;SDS011;48440;51.224;22.506;2023-02-28T04:33:50;33.15;;;13.70;;
62401;SDS011;48440;51.224;22.506;2023-02-28T04:36:16;29.60;;;12.57;;
62401;SDS011;48440;51.224;22.506;2023-02-28T04:41:50;23.73;;;11.80;;
62401;SDS011;48440;51.224;22.506;2023-02-28T04:44:19;20.48;;;10.23;;
62401;SDS011;48440;51.224;22.506;2023-02-28T04:49:35;27.02;;;11.85;;
62401;SDS011;48440;51.224;22.506;2023-02-28T04:52:05;27.17;;;11.60;;
62401;SDS011;48440;51.224;22.506;2023-02-28T05:00:36;22.95;;;10.40;;
62401;SDS011;48440;51.224;22.506;2023-02-28T05:03:20;27.63;;;10.50;;
62401;SDS011;48440;51.224;22.506;2023-02-28T05:06:09;26.95;;;10.35;;
62401;SDS011;48440;51.224;22.506;2023-02-28T05:08:46;22.83;;;10.73;;
62401;SDS011;48440;51.224;22.506;2023-02-28T05:13:47;25.80;;;10.95;;
62401;SDS011;48440;51.224;22.506;2023-02-28T05:16:14;23.20;;;10.48;;
62401;SDS011;48440;51.224;22.506;2023-02-28T05:18:41;26.67;;;10.40;;
62401;SDS011;48440;51.224;22.506;2023-02-28T05:22:12;19.30;;;9.32;;
62401;SDS011;48440;51.224;22.506;2023-02-28T05:24:10;22.08;;;11.73;;
62401;SDS011;48440;51.224;22.506;2023-02-28T05:26:38;22.20;;;11.77;;
62401;SDS011;48440;51.224;22.506;2023-02-28T05:29:05;20.88;;;10.10;;
62401;SDS011;48440;51.224;22.506;2023-02-28T05:31:31;25.17;;;11.10;;
62401;SDS011;48440;51.224;22.506;2023-02-28T05:33:57;26.08;;;11.15;;
62401;SDS011;48440;51.224;22.506;2023-02-28T05:36:26;25.13;;;9.88;;
62401;SDS011;48440;51.224;22.506;2023-02-28T05:38:52;23.60;;;10.45;;
62401;SDS011;48440;51.224;22.506;2023-02-28T05:41:19;17.63;;;8.70;;
62401;SDS011;48440;51.224;22.506;2023-02-28T05:43:46;20.38;;;8.93;;
62401;SDS011;48440;51.224;22.506;2023-02-28T05:46:12;15.55;;;7.90;;
62401;SDS011;48440;51.224;22.506;2023-02-28T05:48:41;16.55;;;7.95;;
62401;SDS011;48440;51.224;22.506;2023-02-28T05:51:09;16.60;;;8.18;;
62401;SDS011;48440;51.224;22.506;2023-02-28T05:53:34;16.08;;;8.63;;
62401;SDS011;48440;51.224;22.506;2023-02-28T05:56:01;20.17;;;8.18;;
62401;SDS011;48440;51.224;22.506;2023-02-28T05:58:26;15.98;;;8.00;;
62401;SDS011;48440;51.224;22.506;2023-02-28T06:00:56;17.80;;;8.15;;
62401;SDS011;48440;51.224;22.506;2023-02-28T06:03:22;16.98;;;7.90;;
62401;SDS011;48440;51.224;22.506;2023-02-28T06:05:48;14.57;;;7.63;;
62401;SDS011;48440;51.224;22.506;2023-02-28T06:08:15;14.52;;;7.63;;
62401;SDS011;48440;51.224;22.506;2023-02-28T06:10:41;17.55;;;7.90;;
62401;SDS011;48440;51.224;22.506;2023-02-28T06:13:07;18.25;;;8.15;;
62401;SDS011;48440;51.224;22.506;2023-02-28T06:15:34;20.08;;;9.43;;
62401;SDS011;48440;51.224;22.506;2023-02-28T06:17:59;19.98;;;10.48;;
62401;SDS011;48440;51.224;22.506;2023-02-28T06:20:26;20.33;;;10.65;;
62401;SDS011;48440;51.224;22.506;2023-02-28T06:22:55;21.27;;;10.52;;
62401;SDS011;48440;51.224;22.506;2023-02-28T06:25:23;20.40;;;10.73;;
62401;SDS011;48440;51.224;22.506;2023-02-28T06:27:50;20.77;;;10.40;;
62401;SDS011;48440;51.224;22.506;2023-02-28T06:30:16;20.83;;;9.85;;
62401;SDS011;48440;51.224;22.506;2023-02-28T06:32:42;24.55;;;11.10;;
62401;SDS011;48440;51.224;22.506;2023-02-28T06:35:08;20.67;;;10.35;;
62401;SDS011;48440;51.224;22.506;2023-02-28T06:37:33;18.45;;;10.65;;
62401;SDS011;48440;51.224;22.506;2023-02-28T06:39:59;24.75;;;10.88;;
62401;SDS011;48440;51.224;22.506;2023-02-28T06:42:25;18.20;;;10.35;;
62401;SDS011;48440;51.224;22.506;2023-02-28T06:44:56;18.73;;;10.43;;
62401;SDS011;48440;51.224;22.506;2023-02-28T06:47:23;27.98;;;13.43;;
62401;SDS011;48440;51.224;22.506;2023-02-28T06:49:48;30.60;;;13.95;;
62401;SDS011;48440;51.224;22.506;2023-02-28T06:52:15;36.63;;;14.77;;
62401;SDS011;48440;51.224;22.506;2023-02-28T06:54:41;34.17;;;14.55;;
62401;SDS011;48440;51.224;22.506;2023-02-28T06:57:07;33.80;;;13.55;;
62401;SDS011;48440;51.224;22.506;2023-02-28T06:59:33;27.75;;;12.95;;
62401;SDS011;48440;51.224;22.506;2023-02-28T07:02:00;25.83;;;12.23;;
62401;SDS011;48440;51.224;22.506;2023-02-28T07:04:27;28.52;;;11.27;;
62401;SDS011;48440;51.224;22.506;2023-02-28T07:06:53;21.88;;;10.27;;
62401;SDS011;48440;51.224;22.506;2023-02-28T07:09:21;22.35;;;9.90;;
62401;SDS011;48440;51.224;22.506;2023-02-28T07:11:46;21.15;;;9.23;;
62401;SDS011;48440;51.224;22.506;2023-02-28T07:14:13;19.05;;;9.13;;
62401;SDS011;48440;51.224;22.506;2023-02-28T07:16:38;19.92;;;8.95;;
62401;SDS011;48440;51.224;22.506;2023-02-28T07:19:04;19.40;;;9.18;;
62401;SDS011;48440;51.224;22.506;2023-02-28T07:21:30;25.35;;;9.50;;
62401;SDS011;48440;51.224;22.506;2023-02-28T07:23:55;20.08;;;10.15;;
62401;SDS011;48440;51.224;22.506;2023-02-28T07:26:22;24.05;;;10.88;;
62401;SDS011;48440;51.224;22.506;2023-02-28T07:28:50;22.25;;;9.70;;
62401;SDS011;48440;51.224;22.506;2023-02-28T07:31:16;21.80;;;10.07;;
62401;SDS011;48440;51.224;22.506;2023-02-28T07:33:42;24.83;;;11.05;;
62401;SDS011;48440;51.224;22.506;2023-02-28T07:36:10;26.75;;;10.98;;
62401;SDS011;48440;51.224;22.506;2023-02-28T07:38:40;23.17;;;10.98;;
62401;SDS011;48440;51.224;22.506;2023-02-28T07:41:07;25.00;;;11.48;;
62401;SDS011;48440;51.224;22.506;2023-02-28T07:43:34;20.55;;;10.63;;
62401;SDS011;48440;51.224;22.506;2023-02-28T07:46:04;24.90;;;11.13;;
62401;SDS011;48440;51.224;22.506;2023-02-28T07:48:32;21.95;;;11.85;;
62401;SDS011;48440;51.224;22.506;2023-02-28T07:50:58;22.05;;;11.68;;
62401;SDS011;48440;51.224;22.506;2023-02-28T07:53:25;21.67;;;11.13;;
62401;SDS011;48440;51.224;22.506;2023-02-28T07:56:01;19.63;;;10.77;;
62401;SDS011;48440;51.224;22.506;2023-02-28T07:58:28;19.85;;;9.82;;
62401;SDS011;48440;51.224;22.506;2023-02-28T08:00:55;19.75;;;10.07;;
62401;SDS011;48440;51.224;22.506;2023-02-28T08:03:22;18.95;;;9.63;;
62401;SDS011;48440;51.224;22.506;2023-02-28T08:18:29;15.35;;;8.35;;
62401;SDS011;48440;51.224;22.506;2023-02-28T08:21:42;14.40;;;7.68;;
62401;SDS011;48440;51.224;22.506;2023-02-28T08:24:45;15.77;;;7.85;;
62401;SDS011;48440;51.224;22.506;2023-02-28T08:27:41;14.90;;;8.98;;
62401;SDS011;48440;51.224;22.506;2023-02-28T08:30:07;16.50;;;8.63;;
62401;SDS011;48440;51.224;22.506;2023-02-28T08:32:34;15.52;;;8.68;;
62401;SDS011;48440;51.224;22.506;2023-02-28T08:35:00;16.05;;;9.10;;
62401;SDS011;48440;51.224;22.506;2023-02-28T08:37:26;17.15;;;9.07;;
62401;SDS011;48440;51.224;22.506;2023-02-28T08:39:52;17.52;;;9.27;;
62401;SDS011;48440;51.224;22.506;2023-02-28T08:42:18;17.10;;;9.45;;
62401;SDS011;48440;51.224;22.506;2023-02-28T08:44:43;19.40;;;9.27;;
62401;SDS011;48440;51.224;22.506;2023-02-28T08:47:09;18.00;;;9.02;;
62401;SDS011;48440;51.224;22.506;2023-02-28T08:49:34;17.63;;;9.52;;
62401;SDS011;48440;51.224;22.506;2023-02-28T08:52:01;18.80;;;9.30;;
62401;SDS011;48440;51.224;22.506;2023-02-28T08:54:26;17.42;;;9.57;;
62401;SDS011;48440;51.224;22.506;2023-02-28T08:56:55;17.80;;;10.05;;
62401;SDS011;48440;51.224;22.506;2023-02-28T08:59:21;20.63;;;10.15;;
62401;SDS011;48440;51.224;22.506;2023-02-28T09:01:46;19.30;;;9.40;;
62401;SDS011;48440;51.224;22.506;2023-02-28T09:04:12;16.10;;;9.13;;
62401;SDS011;48440;51.224;22.506;2023-02-28T09:06:38;17.95;;;9.65;;
62401;SDS011;48440;51.224;22.506;2023-02-28T09:09:04;13.55;;;8.70;;
62401;SDS011;48440;51.224;22.506;2023-02-28T09:11:35;16.05;;;8.95;;
62401;SDS011;48440;51.224;22.506;2023-02-28T09:14:01;14.68;;;7.65;;
62401;SDS011;48440;51.224;22.506;2023-02-28T09:16:28;11.15;;;7.57;;
62401;SDS011;48440;51.224;22.506;2023-02-28T09:18:55;14.57;;;7.70;;
62401;SDS011;48440;51.224;22.506;2023-02-28T09:21:21;15.13;;;8.35;;
62401;SDS011;48440;51.224;22.506;2023-02-28T09:23:48;16.35;;;8.50;;
62401;SDS011;48440;51.224;22.506;2023-02-28T09:26:18;16.60;;;7.88;;
62401;SDS011;48440;51.224;22.506;2023-02-28T09:28:47;12.80;;;7.45;;
62401;SDS011;48440;51.224;22.506;2023-02-28T09:31:18;17.08;;;7.93;;
62401;SDS011;48440;51.224;22.506;2023-02-28T09:33:49;12.20;;;6.68;;
62401;SDS011;48440;51.224;22.506;2023-02-28T09:36:16;10.73;;;6.40;;
62401;SDS011;48440;51.224;22.506;2023-02-28T09:38:43;10.07;;;6.50;;
62401;SDS011;48440;51.224;22.506;2023-02-28T09:41:12;16.60;;;8.70;;
62401;SDS011;48440;51.224;22.506;2023-02-28T09:43:44;18.48;;;8.45;;
62401;SDS011;48440;51.224;22.506;2023-02-28T09:46:44;16.75;;;8.18;;
62401;SDS011;48440;51.224;22.506;2023-02-28T09:49:37;18.30;;;8.47;;
62401;SDS011;48440;51.224;22.506;2023-02-28T09:52:30;19.13;;;8.85;;
62401;SDS011;48440;51.224;22.506;2023-02-28T09:55:19;14.95;;;8.43;;
62401;SDS011;48440;51.224;22.506;2023-02-28T09:57:45;14.27;;;8.32;;
62401;SDS011;48440;51.224;22.506;2023-02-28T10:12:10;14.80;;;8.80;;
62401;SDS011;48440;51.224;22.506;2023-02-28T10:14:59;14.70;;;8.35;;
62401;SDS011;48440;51.224;22.506;2023-02-28T10:17:29;13.73;;;8.10;;
62401;SDS011;48440;51.224;22.506;2023-02-28T10:20:17;20.30;;;9.23;;
62401;SDS011;48440;51.224;22.506;2023-02-28T10:22:57;15.40;;;9.55;;
62401;SDS011;48440;51.224;22.506;2023-02-28T10:25:37;15.35;;;8.80;;
62401;SDS011;48440;51.224;22.506;2023-02-28T10:31:18;19.45;;;8.60;;
62401;SDS011;48440;51.224;22.506;2023-02-28T10:33:44;15.57;;;8.88;;
62401;SDS011;48440;51.224;22.506;2023-02-28T10:36:15;18.40;;;9.85;;
62401;SDS011;48440;51.224;22.506;2023-02-28T10:38:48;17.10;;;9.25;;
62401;SDS011;48440;51.224;22.506;2023-02-28T10:41:36;16.27;;;9.57;;
62401;SDS011;48440;51.224;22.506;2023-02-28T10:46:48;14.82;;;8.63;;
62401;SDS011;48440;51.224;22.506;2023-02-28T10:49:22;15.60;;;9.25;;
62401;SDS011;48440;51.224;22.506;2023-02-28T10:51:52;17.58;;;8.95;;
62401;SDS011;48440;51.224;22.506;2023-02-28T10:57:07;20.70;;;10.63;;
62401;SDS011;48440;51.224;22.506;2023-02-28T10:59:50;18.52;;;9.82;;
62401;SDS011;48440;51.224;22.506;2023-02-28T11:02:31;17.70;;;9.50;;
62401;SDS011;48440;51.224;22.506;2023-02-28T11:04:59;16.85;;;9.38;;
62401;SDS011;48440;51.224;22.506;2023-02-28T11:07:25;16.77;;;9.45;;
62401;SDS011;48440;51.224;22.506;2023-02-28T11:09:56;17.17;;;9.20;;
62401;SDS011;48440;51.224;22.506;2023-02-28T11:15:40;19.00;;;9.88;;
62401;SDS011;48440;51.224;22.506;2023-02-28T11:20:38;15.13;;;9.00;;
62401;SDS011;48440;51.224;22.506;2023-02-28T11:23:05;16.73;;;9.40;;
62401;SDS011;48440;51.224;22.506;2023-02-28T11:25:45;19.23;;;9.65;;
62401;SDS011;48440;51.224;22.506;2023-02-28T11:33:28;18.98;;;10.43;;
62401;SDS011;48440;51.224;22.506;2023-02-28T11:36:01;17.50;;;10.30;;
62401;SDS011;48440;51.224;22.506;2023-02-28T11:38:35;16.02;;;9.93;;
62401;SDS011;48440;51.224;22.506;2023-02-28T11:41:04;21.13;;;10.88;;
62401;SDS011;48440;51.224;22.506;2023-02-28T11:43:53;16.90;;;9.82;;
62401;SDS011;48440;51.224;22.506;2023-02-28T11:59:55;17.33;;;10.30;;
62401;SDS011;48440;51.224;22.506;2023-02-28T12:21:44;21.17;;;11.63;;
62401;SDS011;48440;51.224;22.506;2023-02-28T12:27:21;20.58;;;11.98;;
62401;SDS011;48440;51.224;22.506;2023-02-28T12:30:04;17.67;;;10.85;;
62401;SDS011;48440;51.224;22.506;2023-02-28T12:33:31;18.23;;;11.60;;
62401;SDS011;48440;51.224;22.506;2023-02-28T12:35:40;21.92;;;11.50;;
62401;SDS011;48440;51.224;22.506;2023-02-28T12:38:16;17.58;;;11.35;;
62401;SDS011;48440;51.224;22.506;2023-02-28T12:43:36;19.42;;;10.98;;
62401;SDS011;48440;51.224;22.506;2023-02-28T12:49:02;17.60;;;11.40;;
62401;SDS011;48440;51.224;22.506;2023-02-28T12:51:45;19.75;;;11.65;;
62401;SDS011;48440;51.224;22.506;2023-02-28T13:11:07;20.75;;;11.85;;
62401;SDS011;48440;51.224;22.506;2023-02-28T13:13:32;19.83;;;12.23;;
62401;SDS011;48440;51.224;22.506;2023-02-28T13:18:37;21.52;;;13.05;;
62401;SDS011;48440;51.224;22.506;2023-02-28T13:29:01;21.52;;;13.05;;
62401;SDS011;48440;51.224;22.506;2023-02-28T13:47:44;23.75;;;11.90;;
62401;SDS011;48440;51.224;22.506;2023-02-28T13:50:22;23.17;;;12.30;;
62401;SDS011;48440;51.224;22.506;2023-02-28T13:55:24;22.17;;;11.95;;
62401;SDS011;48440;51.224;22.506;2023-02-28T13:58:12;19.80;;;11.60;;
62401;SDS011;48440;51.224;22.506;2023-02-28T14:03:34;20.70;;;11.60;;
62401;SDS011;48440;51.224;22.506;2023-02-28T14:06:22;23.13;;;12.23;;
62401;SDS011;48440;51.224;22.506;2023-02-28T14:11:54;24.27;;;11.93;;
62401;SDS011;48440;51.224;22.506;2023-02-28T14:17:15;22.20;;;12.38;;
62401;SDS011;48440;51.224;22.506;2023-02-28T14:19:45;18.48;;;11.02;;
62401;SDS011;48440;51.224;22.506;2023-02-28T14:28:08;19.95;;;11.20;;
62401;SDS011;48440;51.224;22.506;2023-02-28T14:31:04;22.92;;;11.95;;
62401;SDS011;48440;51.224;22.506;2023-02-28T14:36:59;20.33;;;11.85;;
62401;SDS011;48440;51.224;22.506;2023-02-28T14:39:24;18.83;;;11.98;;
62401;SDS011;48440;51.224;22.506;2023-02-28T14:41:58;19.85;;;11.85;;
62401;SDS011;48440;51.224;22.506;2023-02-28T14:44:28;19.45;;;10.98;;
62401;SDS011;48440;51.224;22.506;2023-02-28T14:54:45;20.80;;;12.25;;
62401;SDS011;48440;51.224;22.506;2023-02-28T14:57:21;19.13;;;11.80;;
62401;SDS011;48440;51.224;22.506;2023-02-28T15:02:38;22.15;;;12.05;;
62401;SDS011;48440;51.224;22.506;2023-02-28T15:08:00;27.92;;;14.13;;
62401;SDS011;48440;51.224;22.506;2023-02-28T15:13:50;28.42;;;14.48;;
62401;SDS011;48440;51.224;22.506;2023-02-28T15:18:56;24.30;;;13.63;;
62401;SDS011;48440;51.224;22.506;2023-02-28T15:21:30;23.50;;;13.35;;
62401;SDS011;48440;51.224;22.506;2023-02-28T15:23:59;26.38;;;13.02;;
62401;SDS011;48440;51.224;22.506;2023-02-28T15:26:38;22.15;;;12.48;;
62401;SDS011;48440;51.224;22.506;2023-02-28T15:29:16;26.10;;;14.15;;
62401;SDS011;48440;51.224;22.506;2023-02-28T15:31:46;26.25;;;14.13;;
62401;SDS011;48440;51.224;22.506;2023-02-28T15:34:36;23.52;;;13.63;;
62401;SDS011;48440;51.224;22.506;2023-02-28T15:37:06;24.77;;;13.73;;
62401;SDS011;48440;51.224;22.506;2023-02-28T15:39:50;26.00;;;13.27;;
62401;SDS011;48440;51.224;22.506;2023-02-28T15:42:20;25.40;;;14.00;;
62401;SDS011;48440;51.224;22.506;2023-02-28T15:44:47;27.10;;;14.75;;
62401;SDS011;48440;51.224;22.506;2023-02-28T15:49:50;32.00;;;16.23;;
62401;SDS011;48440;51.224;22.506;2023-02-28T15:57:54;35.42;;;17.15;;
62401;SDS011;48440;51.224;22.506;2023-02-28T16:00:25;34.53;;;15.95;;
62401;SDS011;48440;51.224;22.506;2023-02-28T16:03:22;34.83;;;16.98;;
62401;SDS011;48440;51.224;22.506;2023-02-28T16:09:02;35.25;;;17.52;;
62401;SDS011;48440;51.224;22.506;2023-02-28T16:11:30;32.53;;;17.15;;
62401;SDS011;48440;51.224;22.506;2023-02-28T16:14:08;33.67;;;17.30;;
62401;SDS011;48440;51.224;22.506;2023-02-28T16:16:49;29.40;;;15.32;;
62401;SDS011;48440;51.224;22.506;2023-02-28T16:19:17;34.13;;;16.80;;
62401;SDS011;48440;51.224;22.506;2023-02-28T16:21:52;35.22;;;16.70;;
62401;SDS011;48440;51.224;22.506;2023-02-28T16:24:18;38.72;;;17.20;;
62401;SDS011;48440;51.224;22.506;2023-02-28T16:26:45;33.97;;;16.92;;
62401;SDS011;48440;51.224;22.506;2023-02-28T16:29:18;33.50;;;17.25;;
62401;SDS011;48440;51.224;22.506;2023-02-28T16:31:50;33.65;;;16.40;;
62401;SDS011;48440;51.224;22.506;2023-02-28T16:34:15;34.63;;;17.95;;
62401;SDS011;48440;51.224;22.506;2023-02-28T16:36:41;33.58;;;18.92;;
62401;SDS011;48440;51.224;22.506;2023-02-28T16:39:07;36.22;;;17.98;;
62401;SDS011;48440;51.224;22.506;2023-02-28T16:41:34;35.08;;;17.73;;
62401;SDS011;48440;51.224;22.506;2023-02-28T16:44:00;34.50;;;16.77;;
62401;SDS011;48440;51.224;22.506;2023-02-28T16:46:34;35.28;;;16.58;;
62401;SDS011;48440;51.224;22.506;2023-02-28T16:49:00;29.10;;;16.45;;
62401;SDS011;48440;51.224;22.506;2023-02-28T16:51:25;32.78;;;16.20;;
62401;SDS011;48440;51.224;22.506;2023-02-28T16:53:51;33.20;;;16.05;;
62401;SDS011;48440;51.224;22.506;2023-02-28T16:56:22;34.50;;;17.15;;
62401;SDS011;48440;51.224;22.506;2023-02-28T16:58:49;34.85;;;16.33;;
62401;SDS011;48440;51.224;22.506;2023-02-28T17:01:18;32.05;;;16.83;;
62401;SDS011;48440;51.224;22.506;2023-02-28T17:03:47;38.20;;;17.98;;
62401;SDS011;48440;51.224;22.506;2023-02-28T17:06:24;47.45;;;21.52;;
62401;SDS011;48440;51.224;22.506;2023-02-28T17:08:54;50.85;;;24.65;;
62401;SDS011;48440;51.224;22.506;2023-02-28T17:11:19;69.18;;;29.42;;
62401;SDS011;48440;51.224;22.506;2023-02-28T17:13:46;74.20;;;32.40;;
62401;SDS011;48440;51.224;22.506;2023-02-28T17:19:09;226.90;;;70.63;;
62401;SDS011;48440;51.224;22.506;2023-02-28T17:21:46;214.15;;;63.65;;
62401;SDS011;48440;51.224;22.506;2023-02-28T17:24:30;189.73;;;58.67;;
62401;SDS011;48440;51.224;22.506;2023-02-28T17:26:55;112.15;;;43.47;;
62401;SDS011;48440;51.224;22.506;2023-02-28T17:29:21;160.60;;;52.70;;
62401;SDS011;48440;51.224;22.506;2023-02-28T17:31:47;195.15;;;60.80;;
62401;SDS011;48440;51.224;22.506;2023-02-28T17:34:13;190.30;;;56.60;;
62401;SDS011;48440;51.224;22.506;2023-02-28T17:36:46;163.55;;;51.20;;
62401;SDS011;48440;51.224;22.506;2023-02-28T17:39:13;161.25;;;48.70;;
62401;SDS011;48440;51.224;22.506;2023-02-28T17:41:40;166.57;;;53.30;;
62401;SDS011;48440;51.224;22.506;2023-02-28T17:44:07;182.35;;;57.53;;
62401;SDS011;48440;51.224;22.506;2023-02-28T17:46:33;195.18;;;62.88;;
62401;SDS011;48440;51.224;22.506;2023-02-28T17:49:17;212.70;;;65.30;;
62401;SDS011;48440;51.224;22.506;2023-02-28T17:51:48;172.38;;;58.53;;
62401;SDS011;48440;51.224;22.506;2023-02-28T17:54:49;171.93;;;54.15;;
62401;SDS011;48440;51.224;22.506;2023-02-28T17:57:18;165.60;;;54.50;;
62401;SDS011;48440;51.224;22.506;2023-02-28T17:59:46;167.82;;;50.78;;
62401;SDS011;48440;51.224;22.506;2023-02-28T18:02:33;154.65;;;49.63;;
62401;SDS011;48440;51.224;22.506;2023-02-28T18:05:42;136.85;;;46.55;;
62401;SDS011;48440;51.224;22.506;2023-02-28T18:08:11;138.75;;;46.85;;
62401;SDS011;48440;51.224;22.506;2023-02-28T18:11:02;141.07;;;46.05;;
62401;SDS011;48440;51.224;22.506;2023-02-28T18:13:43;158.45;;;52.22;;
62401;SDS011;48440;51.224;22.506;2023-02-28T18:16:13;163.68;;;57.25;;
62401;SDS011;48440;51.224;22.506;2023-02-28T18:18:39;159.63;;;54.53;;
62401;SDS011;48440;51.224;22.506;2023-02-28T18:21:05;157.38;;;52.42;;
62401;SDS011;48440;51.224;22.506;2023-02-28T18:23:35;145.38;;;51.10;;
62401;SDS011;48440;51.224;22.506;2023-02-28T18:26:01;148.30;;;51.17;;
62401;SDS011;48440;51.224;22.506;2023-02-28T18:28:26;161.95;;;54.15;;
62401;SDS011;48440;51.224;22.506;2023-02-28T18:30:52;173.05;;;54.55;;
62401;SDS011;48440;51.224;22.506;2023-02-28T18:33:17;177.75;;;57.45;;
62401;SDS011;48440;51.224;22.506;2023-02-28T18:35:44;166.63;;;54.90;;
62401;SDS011;48440;51.224;22.506;2023-02-28T18:38:11;162.98;;;54.17;;
62401;SDS011;48440;51.224;22.506;2023-02-28T18:40:39;203.70;;;61.00;;
62401;SDS011;48440;51.224;22.506;2023-02-28T18:43:06;204.48;;;63.72;;